Airfield :
LOGIN :

Register | Disclaimer

   EN    FR    IT 

 










Legend :    VFR   Marginal VFR   IFR   Intensive IFR   Very Intensive IFR
Visi :
Ceiling :
>= 8 km
>= 3000ft
5 to 8 km
1000 to 3000 ft
1500m to 5 km
500 to 1000 ft
800 to 1500m
200 to 500 ft
< 800m
< 200 ft
Symbols :   Thunderstorms  Fog  Heavy snow  Heavy precipitations  Wind > 20 kt
SIGMETs :     Misc.  Thunderstorms  Icing  Turbulence  Mountain Waves  Volcanic Ashes






- Airport Elevation : 12 ft
- IATA code : CQF


LFAC - Calais

CURRENT METAR :
  • 291200Z AUTO 21014KT 9999 BKN018 BKN025 OVC031 12/10 Q1005

EXPIRED METARs :
  • 291130Z AUTO 20014KT 9999 BKN019 BKN024 OVC034 13/09 Q1006
  • 291100Z AUTO 20011KT 9999 BKN017 BKN025 OVC043 13/10 Q1006
  • 291030Z AUTO 19010KT 9999 OVC014 12/10 Q1007
  • 291000Z AUTO 20011KT 9999 BKN013 OVC020 12/10 Q1007
  • 290930Z AUTO 19009KT 9999 BKN010 BKN014 OVC023 11/10 Q1007
  • 290900Z AUTO 20008KT 9999 BKN010 BKN021 OVC027 11/10 Q1008
  • 290830Z AUTO 21009KT 9999 OVC010 11/10 Q1008
  • 290800Z AUTO 20010KT 9999 FEW015 OVC040 11/09 Q1008
  • 290730Z AUTO 21011KT 9999 SCT012 BKN042 OVC048 11/09 Q1008

TAF N/A
ATIS : +33 3 21 00 11 14



MET'MAP, your aeronautical weather chart ! - Copyright ORBIFLY December 2007 - Disclaimer

ORBIFLY MET'MAP TEAM :

Programming & Development : Alexandra Zaïnal
Original concept : Baudouin d'Aumeries
Technical & hardware support : Manuel Goepfert
Assistance : Marc-Olivier Méhu




SOURCES & CREDITS :

   NOAA